Colombo Express — DIHC — position and weather

sailwx.info

Track history (hours):
 
Tides and Currents Weather Stations Pressure Air Temp Water Temp Dewpoint Dewpoint Depression Visibility Wind Speed Wind Dir Waves Ship Positions

Colombo Express

Last reported at 2014-Aug-27 12:32 UTC. Time now 2014-Aug-29 12:22 UTC.
Position N 01°09' E 103°42'.

Length 335.5 m; beam 42.8 m; draft 14.6 m.

Type: Ship. MMSI: 211433000.

Date/timePositionNaut miles runAvg speedWind from/ knotsBaromVisibWave heightAir tempDewpointWater temp
2014-Aug-27 12:32N 01°09' E 103°42'1111.4
2014-Aug-27 11:32N 01°14' E 103°53'3 2.5
2014-Aug-27 10:28N 01°16' E 103°51'0 0.0
2014-Aug-27 08:31N 01°16' E 103°51'0 0.0
2014-Aug-27 07:28N 01°16' E 103°51'0 0.0
2014-Aug-27 06:33N 01°16' E 103°51'0 0.0
2014-Aug-27 05:30N 01°16' E 103°51'0 0.0
2014-Aug-27 04:33N 01°16' E 103°51'0 0.0
2014-Aug-27 03:15N 01°16' E 103°51'0 0.0
2014-Aug-27 02:33N 01°16' E 103°51'0 0.0
2014-Aug-27 01:27N 01°16' E 103°51'0 0.0
2014-Aug-27 00:30N 01°16' E 103°51'0 0.0
2014-Aug-26 23:31N 01°16' E 103°51'0 0.0
2014-Aug-26 22:28N 01°16' E 103°51'0 0.0
2014-Aug-26 21:28N 01°16' E 103°51'0 0.0
2014-Aug-26 20:31N 01°16' E 103°51'0 0.0
2014-Aug-26 19:31N 01°16' E 103°51'0 0.0
2014-Aug-26 18:10N 01°16' E 103°51'0 0.0
2014-Aug-26 17:16N 01°16' E 103°51'0 0.0
2014-Aug-26 16:31N 01°16' E 103°51'0 0.0
2014-Aug-26 15:10N 01°16' E 103°51'0 0.0
2014-Aug-26 13:16N 01°16' E 103°51'0 0.0
2014-Aug-26 12:10N 01°16' E 103°51'0 0.0
2014-Aug-26 11:25N 01°16' E 103°51'0 0.0
2014-Aug-26 10:31N 01°16' E 103°51'0 0.0
2014-Aug-26 09:28N 01°16' E 103°51'0 0.0
2014-Aug-26 08:28N 01°16' E 103°51'0 0.0
2014-Aug-26 06:28N 01°16' E 103°51'0 0.0
2014-Aug-26 05:22N 01°16' E 103°51'0 0.0
2014-Aug-26 04:33N 01°16' E 103°51'0 0.0
2014-Aug-26 03:33N 01°16' E 103°51'0 0.0
2014-Aug-26 02:33N 01°16' E 103°51'0 0.0
2014-Aug-26 01:32N 01°16' E 103°51'0 0.0
2014-Aug-26 00:29N 01°16' E 103°51'0 0.0
2014-Aug-25 23:32N 01°16' E 103°51'0 0.0
2014-Aug-25 22:23N 01°16' E 103°51'0 0.0
2014-Aug-25 21:32N 01°16' E 103°51'0 0.0
2014-Aug-25 20:32N 01°16' E 103°51'0 0.0
2014-Aug-25 19:29N 01°16' E 103°51'0 0.0
2014-Aug-25 18:32N 01°16' E 103°51'0 0.0
2014-Aug-25 17:29N 01°16' E 103°51'0 0.1
2014-Aug-25 16:33N 01°16' E 103°51'3 2.7
2014-Aug-25 15:33N 01°14' E 103°53'3 3.5
2014-Aug-25 14:33N 01°14' E 103°56'1110.5
2014-Aug-25 13:29N 01°17' E 104°07'8110.8
2014-Aug-25 06:00N 02°18' E 105°00'14512.1 180 / 161010.110.8 0.530.024.628.0
2014-Aug-24 18:00N 04°24' E 106°12'15613.0 230 / 141010.910.8 0.527.023.629.0
2014-Aug-24 06:00N 06°36' E 107°36'25816.1 300 / 51009.510.8 31.024.229.0
2014-Aug-23 14:00N 10°18' E 109°48'14217.8 240 / 81009.510.8 29.224.230.0
2014-Aug-23 06:00N 12°30' E 110°42'   250 / 71010.210.8 30.525.129.0
2014-Aug-21 01:27N 22°19' E 114°07'13 0.5
2014-Aug-19 22:33N 22°24' E 113°53'4 3.5
2014-Aug-19 21:32N 22°27' E 113°54'0 0.0
2014-Aug-19 20:30N 22°27' E 113°54'0 0.0
2014-Aug-19 19:11N 22°27' E 113°54'0 0.0
2014-Aug-19 18:29N 22°27' E 113°54'0 0.0
2014-Aug-19 17:29N 22°27' E 113°54'0 0.0
2014-Aug-19 16:29N 22°27' E 113°54'0 0.0
2014-Aug-19 15:05N 22°27' E 113°54'0 0.0
2014-Aug-19 14:29N 22°27' E 113°54'0 0.0
2014-Aug-19 13:29N 22°27' E 113°54'748532.7
2014-Aug-19 12:05N 31°09' E 123°54'7481312.5
2014-Aug-19 11:31N 22°27' E 113°54'0 0.0
2014-Aug-19 09:28N 22°27' E 113°54'0 0.0
2014-Aug-19 08:28N 22°27' E 113°54'0 0.0
2014-Aug-19 07:28N 22°27' E 113°54'0 0.0
2014-Aug-19 06:28N 22°27' E 113°54'0 0.0
2014-Aug-19 05:28N 22°27' E 113°54'0 0.0
2014-Aug-19 04:28N 22°27' E 113°54'0 0.0
2014-Aug-19 03:28N 22°27' E 113°54'0 0.0
2014-Aug-19 02:28N 22°27' E 113°54'0 0.0
2014-Aug-19 01:33N 22°27' E 113°54'3 2.8
2014-Aug-19 00:33N 22°24' E 113°54'145 9.6
2014-Aug-18 09:27N 22°47' E 116°29'1112.5
2014-Aug-18 08:33N 22°52' E 116°39'1312.7
2014-Aug-18 07:34N 22°58' E 116°52'1413.6
2014-Aug-18 06:33N 23°05' E 117°05'2914.5
2014-Aug-18 04:33N 23°20' E 117°31'1514.8
2014-Aug-18 03:33N 23°31' E 117°43'1515.0
2014-Aug-18 02:34N 23°40' E 117°56'4 7.9
2014-Aug-18 02:00N 23°42' E 118°00'1024.1 300 / 41010.010.8 28.025.326.0
2014-Aug-18 01:34N 23°50' E 118°08'1515.2
2014-Aug-18 00:33N 23°60' E 118°20'9115.1
2014-Aug-17 18:33N 24°59' E 119°36'  
Track history (hours):
 
Tides and Currents Weather Stations Pressure Air Temp Water Temp Dewpoint Dewpoint Depression Visibility Wind Speed Wind Dir Waves Ship Positions

Colombo Express

Last reported at 2014-Aug-27 12:32 UTC. Time now 2014-Aug-29 12:22 UTC.
Position N 01°09' E 103°42'.

Length 335.5 m; beam 42.8 m; draft 14.6 m.

Type: Ship. MMSI: 211433000.

Date/timePositionNaut miles runAvg speedWind from/ knotsBaromVisibWave heightAir tempDewpointWater temp
2014-Aug-27 12:32N 01°09' E 103°42'1111.4
2014-Aug-27 11:32N 01°14' E 103°53'3 2.5
2014-Aug-27 10:28N 01°16' E 103°51'0 0.0
2014-Aug-27 08:31N 01°16' E 103°51'0 0.0
2014-Aug-27 07:28N 01°16' E 103°51'0 0.0
2014-Aug-27 06:33N 01°16' E 103°51'0 0.0
2014-Aug-27 05:30N 01°16' E 103°51'0 0.0
2014-Aug-27 04:33N 01°16' E 103°51'0 0.0
2014-Aug-27 03:15N 01°16' E 103°51'0 0.0
2014-Aug-27 02:33N 01°16' E 103°51'0 0.0
2014-Aug-27 01:27N 01°16' E 103°51'0 0.0
2014-Aug-27 00:30N 01°16' E 103°51'0 0.0
2014-Aug-26 23:31N 01°16' E 103°51'0 0.0
2014-Aug-26 22:28N 01°16' E 103°51'0 0.0
2014-Aug-26 21:28N 01°16' E 103°51'0 0.0
2014-Aug-26 20:31N 01°16' E 103°51'0 0.0
2014-Aug-26 19:31N 01°16' E 103°51'0 0.0
2014-Aug-26 18:10N 01°16' E 103°51'0 0.0
2014-Aug-26 17:16N 01°16' E 103°51'0 0.0
2014-Aug-26 16:31N 01°16' E 103°51'0 0.0
2014-Aug-26 15:10N 01°16' E 103°51'0 0.0
2014-Aug-26 13:16N 01°16' E 103°51'0 0.0
2014-Aug-26 12:10N 01°16' E 103°51'0 0.0
2014-Aug-26 11:25N 01°16' E 103°51'0 0.0
2014-Aug-26 10:31N 01°16' E 103°51'0 0.0
2014-Aug-26 09:28N 01°16' E 103°51'0 0.0
2014-Aug-26 08:28N 01°16' E 103°51'0 0.0
2014-Aug-26 06:28N 01°16' E 103°51'0 0.0
2014-Aug-26 05:22N 01°16' E 103°51'0 0.0
2014-Aug-26 04:33N 01°16' E 103°51'0 0.0
2014-Aug-26 03:33N 01°16' E 103°51'0 0.0
2014-Aug-26 02:33N 01°16' E 103°51'0 0.0
2014-Aug-26 01:32N 01°16' E 103°51'0 0.0
2014-Aug-26 00:29N 01°16' E 103°51'0 0.0
2014-Aug-25 23:32N 01°16' E 103°51'0 0.0
2014-Aug-25 22:23N 01°16' E 103°51'0 0.0
2014-Aug-25 21:32N 01°16' E 103°51'0 0.0
2014-Aug-25 20:32N 01°16' E 103°51'0 0.0
2014-Aug-25 19:29N 01°16' E 103°51'0 0.0
2014-Aug-25 18:32N 01°16' E 103°51'0 0.0
2014-Aug-25 17:29N 01°16' E 103°51'0 0.1
2014-Aug-25 16:33N 01°16' E 103°51'3 2.7
2014-Aug-25 15:33N 01°14' E 103°53'3 3.5
2014-Aug-25 14:33N 01°14' E 103°56'1110.5
2014-Aug-25 13:29N 01°17' E 104°07'8110.8
2014-Aug-25 06:00N 02°18' E 105°00'14512.1 180 / 161010.110.8 0.530.024.628.0
2014-Aug-24 18:00N 04°24' E 106°12'15613.0 230 / 141010.910.8 0.527.023.629.0
2014-Aug-24 06:00N 06°36' E 107°36'25816.1 300 / 51009.510.8 31.024.229.0
2014-Aug-23 14:00N 10°18' E 109°48'14217.8 240 / 81009.510.8 29.224.230.0
2014-Aug-23 06:00N 12°30' E 110°42'   250 / 71010.210.8 30.525.129.0
2014-Aug-21 01:27N 22°19' E 114°07'13 0.5
2014-Aug-19 22:33N 22°24' E 113°53'4 3.5
2014-Aug-19 21:32N 22°27' E 113°54'0 0.0
2014-Aug-19 20:30N 22°27' E 113°54'0 0.0
2014-Aug-19 19:11N 22°27' E 113°54'0 0.0
2014-Aug-19 18:29N 22°27' E 113°54'0 0.0
2014-Aug-19 17:29N 22°27' E 113°54'0 0.0
2014-Aug-19 16:29N 22°27' E 113°54'0 0.0
2014-Aug-19 15:05N 22°27' E 113°54'0 0.0
2014-Aug-19 14:29N 22°27' E 113°54'0 0.0
2014-Aug-19 13:29N 22°27' E 113°54'748532.7
2014-Aug-19 12:05N 31°09' E 123°54'7481312.5
2014-Aug-19 11:31N 22°27' E 113°54'0 0.0
2014-Aug-19 09:28N 22°27' E 113°54'0 0.0
2014-Aug-19 08:28N 22°27' E 113°54'0 0.0
2014-Aug-19 07:28N 22°27' E 113°54'0 0.0
2014-Aug-19 06:28N 22°27' E 113°54'0 0.0
2014-Aug-19 05:28N 22°27' E 113°54'0 0.0
2014-Aug-19 04:28N 22°27' E 113°54'0 0.0
2014-Aug-19 03:28N 22°27' E 113°54'0 0.0
2014-Aug-19 02:28N 22°27' E 113°54'0 0.0
2014-Aug-19 01:33N 22°27' E 113°54'3 2.8
2014-Aug-19 00:33N 22°24' E 113°54'145 9.6
2014-Aug-18 09:27N 22°47' E 116°29'1112.5
2014-Aug-18 08:33N 22°52' E 116°39'1312.7
2014-Aug-18 07:34N 22°58' E 116°52'1413.6
2014-Aug-18 06:33N 23°05' E 117°05'2914.5
2014-Aug-18 04:33N 23°20' E 117°31'1514.8
2014-Aug-18 03:33N 23°31' E 117°43'1515.0
2014-Aug-18 02:34N 23°40' E 117°56'4 7.9
2014-Aug-18 02:00N 23°42' E 118°00'1024.1 300 / 41010.010.8 28.025.326.0
2014-Aug-18 01:34N 23°50' E 118°08'1515.2
2014-Aug-18 00:33N 23°60' E 118°20'9115.1
2014-Aug-17 18:33N 24°59' E 119°36'  

Dump ship's entire track history